createdAt,value
2023-04-09T00:02:01.506Z,7.83
2023-04-09T00:04:27.994Z,7.81
2023-04-09T00:06:54.408Z,7.81
2023-04-09T00:09:20.897Z,7.80
2023-04-09T00:11:47.300Z,7.80
2023-04-09T00:14:13.696Z,7.78
2023-04-09T00:16:40.806Z,7.77
2023-04-09T00:19:07.675Z,7.75
2023-04-09T00:21:34.094Z,7.72
2023-04-09T00:24:00.660Z,7.70
2023-04-09T00:26:27.333Z,7.66
2023-04-09T00:28:53.874Z,7.60
2023-04-09T00:31:21.004Z,7.56
2023-04-09T00:33:47.529Z,7.46
2023-04-09T00:36:14.054Z,7.40
2023-04-09T00:38:40.824Z,7.34
2023-04-09T00:41:07.351Z,7.24
2023-04-09T00:43:33.804Z,7.24
2023-04-09T00:46:00.885Z,7.23
2023-04-09T00:48:27.744Z,7.21
2023-04-09T00:50:54.220Z,7.18
2023-04-09T00:53:20.673Z,7.17
2023-04-09T00:55:47.214Z,7.15
2023-04-09T00:58:14.482Z,7.11
2023-04-09T01:00:40.954Z,7.07
2023-04-09T01:03:08.396Z,7.03
2023-04-09T01:05:54.962Z,6.96
2023-04-09T01:08:55.983Z,6.89
2023-04-09T01:11:36.003Z,6.81
2023-04-09T01:14:14.609Z,6.76
2023-04-09T01:16:44.720Z,6.73
2023-04-09T01:19:34.510Z,6.72
2023-04-09T01:22:02.750Z,6.70
2023-04-09T01:25:09.894Z,6.71
2023-04-09T01:28:24.029Z,6.69
2023-04-09T01:30:57.394Z,6.68
2023-04-09T01:33:27.363Z,6.66
2023-04-09T01:35:54.832Z,6.62
2023-04-09T01:38:22.208Z,6.63
2023-04-09T01:40:52.020Z,6.63
2023-04-09T01:43:20.059Z,6.64
2023-04-09T01:45:47.795Z,6.64
2023-04-09T01:48:16.052Z,6.61
2023-04-09T01:50:43.688Z,6.51
2023-04-09T01:53:10.446Z,6.45
2023-04-09T01:55:36.856Z,6.38
2023-04-09T01:58:03.452Z,6.30
2023-04-09T02:00:38.325Z,6.29
2023-04-09T02:03:13.382Z,6.28
2023-04-09T02:05:46.491Z,6.21
2023-04-09T02:08:20.537Z,6.13
2023-04-09T02:10:56.609Z,6.12
2023-04-09T02:13:24.355Z,6.10
2023-04-09T02:15:51.692Z,6.11
2023-04-09T02:18:29.139Z,6.11
2023-04-09T02:20:57.296Z,6.12
2023-04-09T02:23:24.555Z,6.14
2023-04-09T02:25:52.537Z,6.14
2023-04-09T02:28:19.223Z,6.13
2023-04-09T02:30:45.686Z,6.15
2023-04-09T02:33:12.120Z,6.10
2023-04-09T02:35:38.660Z,6.03
2023-04-09T02:38:05.219Z,6.00
2023-04-09T02:40:31.725Z,5.95
2023-04-09T02:42:58.521Z,5.94
2023-04-09T02:45:25.164Z,5.91
2023-04-09T02:47:51.656Z,5.87
2023-04-09T02:50:18.141Z,5.85
2023-04-09T02:52:46.568Z,5.75
2023-04-09T02:55:13.952Z,5.70
2023-04-09T02:57:40.928Z,5.67
2023-04-09T03:00:08.260Z,5.65
2023-04-09T03:02:35.288Z,5.65
2023-04-09T03:05:02.311Z,5.62
2023-04-09T03:07:28.760Z,5.59
2023-04-09T03:09:55.225Z,5.58
2023-04-09T03:12:21.634Z,5.49
2023-04-09T03:14:48.027Z,5.42
2023-04-09T03:17:14.412Z,5.38
2023-04-09T03:19:40.908Z,5.43
2023-04-09T03:22:07.427Z,5.43
2023-04-09T03:24:33.940Z,5.35
2023-04-09T03:27:00.354Z,5.40
2023-04-09T03:29:26.775Z,5.35
2023-04-09T03:31:53.190Z,5.31
2023-04-09T03:34:19.689Z,5.25
2023-04-09T03:36:46.313Z,5.07
2023-04-09T03:39:12.744Z,5.15
2023-04-09T03:41:39.335Z,5.08
2023-04-09T03:44:06.065Z,5.10
2023-04-09T03:46:32.564Z,5.07
2023-04-09T03:48:59.055Z,5.06
2023-04-09T03:51:25.505Z,4.99
2023-04-09T03:53:51.946Z,4.97
2023-04-09T03:56:18.408Z,4.97
2023-04-09T03:58:44.881Z,4.88
2023-04-09T04:01:11.305Z,4.91
2023-04-09T04:03:37.865Z,4.88
2023-04-09T04:06:04.440Z,4.86
2023-04-09T04:08:30.861Z,4.78
2023-04-09T04:11:03.616Z,4.72
2023-04-09T04:13:30.242Z,4.67
2023-04-09T04:15:56.792Z,4.59
2023-04-09T04:18:23.242Z,4.51
2023-04-09T04:20:49.661Z,4.35
2023-04-09T04:23:16.103Z,4.39
2023-04-09T04:25:42.656Z,4.30
2023-04-09T04:28:09.207Z,4.22
2023-04-09T04:30:35.734Z,4.19
2023-04-09T04:33:02.225Z,4.08
2023-04-09T04:35:28.697Z,4.05
2023-04-09T04:37:55.150Z,4.02
2023-04-09T04:40:21.572Z,3.97
2023-04-09T04:42:47.996Z,3.93
2023-04-09T04:45:14.500Z,3.86
2023-04-09T04:47:40.984Z,3.83
2023-04-09T04:50:08.197Z,3.72
2023-04-09T04:52:34.641Z,3.76
2023-04-09T04:55:01.066Z,3.77
2023-04-09T04:57:27.488Z,3.75
2023-04-09T04:59:53.992Z,3.74
2023-04-09T05:02:20.708Z,3.73
2023-04-09T05:04:47.189Z,3.65
2023-04-09T05:07:13.632Z,3.65
2023-04-09T05:09:40.151Z,3.63
2023-04-09T05:12:06.596Z,3.62
2023-04-09T05:14:33.066Z,3.58
2023-04-09T05:16:59.602Z,3.59
2023-04-09T05:19:26.122Z,3.54
2023-04-09T05:21:52.644Z,3.53
2023-04-09T05:24:19.076Z,3.53
2023-04-09T05:26:45.526Z,3.53
2023-04-09T05:29:11.978Z,3.56
2023-04-09T05:31:40.149Z,3.56
2023-04-09T05:34:06.639Z,3.57
2023-04-09T05:36:33.249Z,3.62
2023-04-09T05:38:59.730Z,3.69
2023-04-09T05:41:26.156Z,3.80
2023-04-09T05:43:52.892Z,3.86
2023-04-09T05:46:19.680Z,3.91
2023-04-09T05:48:46.866Z,3.89
2023-04-09T05:51:13.372Z,4.18
2023-04-09T05:53:39.832Z,4.45
2023-04-09T05:56:16.167Z,4.79
2023-04-09T05:58:43.016Z,5.14
2023-04-09T06:01:10.193Z,5.43
2023-04-09T06:03:36.917Z,5.71
2023-04-09T06:06:03.680Z,6.13
2023-04-09T06:08:30.159Z,6.55
2023-04-09T06:10:56.743Z,6.99
2023-04-09T06:13:23.582Z,7.39
2023-04-09T06:15:50.369Z,7.74
2023-04-09T06:18:17.137Z,8.12
2023-04-09T06:20:43.599Z,8.62
2023-04-09T06:23:10.207Z,9.07
2023-04-09T06:25:36.719Z,9.59
2023-04-09T06:28:05.268Z,10.15
2023-04-09T06:30:32.014Z,10.69
2023-04-09T06:32:58.527Z,11.04
2023-04-09T06:35:25.002Z,11.59
2023-04-09T06:37:51.499Z,12.08
2023-04-09T06:40:19.224Z,12.35
2023-04-09T06:42:47.128Z,12.85
2023-04-09T06:45:13.734Z,13.37
2023-04-09T06:47:40.172Z,13.25
2023-04-09T06:50:07.256Z,13.35
2023-04-09T06:52:33.736Z,13.56
2023-04-09T06:55:00.313Z,13.54
2023-04-09T06:57:27.224Z,12.97
2023-04-09T06:59:53.683Z,13.04
2023-04-09T07:02:20.556Z,13.35
2023-04-09T07:04:47.715Z,12.55
2023-04-09T07:07:14.446Z,12.52
2023-04-09T07:09:40.941Z,12.04
2023-04-09T07:12:07.348Z,12.03
2023-04-09T07:14:33.812Z,11.83
2023-04-09T07:17:00.284Z,11.98
2023-04-09T07:19:26.727Z,12.64
2023-04-09T07:21:53.147Z,12.13
2023-04-09T07:24:19.610Z,12.11
2023-04-09T07:26:46.098Z,12.06
2023-04-09T07:29:12.523Z,12.30
2023-04-09T07:31:39.396Z,12.21
2023-04-09T07:34:06.136Z,12.44
2023-04-09T07:36:32.814Z,12.85
2023-04-09T07:38:59.271Z,13.25
2023-04-09T07:41:25.964Z,13.38
2023-04-09T07:43:52.552Z,13.73
2023-04-09T07:46:21.313Z,13.42
2023-04-09T07:48:49.421Z,13.85
2023-04-09T07:51:17.051Z,14.30
2023-04-09T07:53:43.504Z,14.72
2023-04-09T07:56:10.395Z,14.65
2023-04-09T07:58:38.102Z,15.06
2023-04-09T08:01:04.879Z,14.84
2023-04-09T08:03:31.546Z,14.43
2023-04-09T08:05:58.242Z,13.99
2023-04-09T08:08:25.033Z,14.51
2023-04-09T08:10:51.575Z,14.36
2023-04-09T08:13:18.032Z,14.39
2023-04-09T08:15:44.434Z,14.03
2023-04-09T08:18:10.851Z,14.24
2023-04-09T08:20:37.823Z,14.43
2023-04-09T08:23:04.263Z,14.63
2023-04-09T08:25:30.902Z,14.86
2023-04-09T08:27:58.121Z,14.65
2023-04-09T08:30:24.638Z,14.56
2023-04-09T08:32:51.223Z,14.58
2023-04-09T08:35:17.722Z,14.48
2023-04-09T08:37:44.244Z,14.32
2023-04-09T08:40:11.807Z,15.10
2023-04-09T08:42:45.944Z,15.38
2023-04-09T08:45:13.995Z,15.56
2023-04-09T08:47:42.111Z,16.00
2023-04-09T08:50:09.010Z,16.35
2023-04-09T08:52:36.782Z,15.87
2023-04-09T08:55:03.450Z,16.65
2023-04-09T08:57:29.950Z,17.20
2023-04-09T08:59:56.429Z,17.18
2023-04-09T09:02:24.179Z,17.13
2023-04-09T09:04:50.924Z,17.70
2023-04-09T09:07:17.752Z,17.84
2023-04-09T09:09:54.554Z,18.02
2023-04-09T09:12:41.555Z,18.19
2023-04-09T09:15:30.031Z,18.54
2023-04-09T09:17:58.413Z,17.74
2023-04-09T09:20:26.569Z,17.37
2023-04-09T09:22:55.646Z,17.96
2023-04-09T09:25:26.393Z,17.91
2023-04-09T09:27:53.968Z,18.27
2023-04-09T09:30:23.153Z,18.72
2023-04-09T09:33:10.791Z,17.75
2023-04-09T09:35:50.830Z,17.10
2023-04-09T09:38:18.248Z,17.93
2023-04-09T09:40:44.967Z,17.87
2023-04-09T09:43:14.461Z,18.35
2023-04-09T09:45:43.108Z,18.75
2023-04-09T09:48:12.059Z,17.71
2023-04-09T09:50:41.765Z,16.62
2023-04-09T09:53:10.038Z,15.57
2023-04-09T09:55:41.723Z,15.91
2023-04-09T09:58:23.528Z,16.29
2023-04-09T10:00:52.211Z,16.76
2023-04-09T10:03:25.879Z,16.70
2023-04-09T10:05:53.847Z,17.39
2023-04-09T10:08:22.289Z,17.66
2023-04-09T10:10:50.183Z,17.23
2023-04-09T10:13:21.819Z,17.33
2023-04-09T10:15:48.913Z,17.01
2023-04-09T10:18:17.875Z,17.48
2023-04-09T10:20:58.642Z,17.53
2023-04-09T10:23:36.254Z,17.85
2023-04-09T10:26:03.037Z,17.13
2023-04-09T10:28:30.029Z,17.53
2023-04-09T10:30:57.553Z,17.79
2023-04-09T10:33:27.076Z,17.88
2023-04-09T10:35:55.327Z,18.03
2023-04-09T10:38:39.050Z,17.80
2023-04-09T10:41:16.539Z,17.90
2023-04-09T10:43:43.401Z,17.40
2023-04-09T10:46:30.091Z,16.70
2023-04-09T10:49:10.384Z,16.06
2023-04-09T10:51:40.290Z,16.37
2023-04-09T10:54:27.386Z,16.17
2023-04-09T10:57:09.221Z,16.49
2023-04-09T10:59:46.083Z,16.97
2023-04-09T11:02:21.577Z,17.06
2023-04-09T11:04:54.674Z,16.40
2023-04-09T11:07:25.044Z,16.44
2023-04-09T11:09:51.477Z,15.64
2023-04-09T11:12:17.939Z,15.61
2023-04-09T11:14:44.370Z,15.61
2023-04-09T11:17:10.858Z,15.70
2023-04-09T11:19:37.391Z,16.08
2023-04-09T11:22:06.568Z,15.95
2023-04-09T11:24:42.570Z,15.84
2023-04-09T11:27:09.163Z,16.20
2023-04-09T11:29:36.699Z,16.48
2023-04-09T11:32:05.191Z,15.98
2023-04-09T11:34:32.409Z,15.88
2023-04-09T11:36:59.866Z,15.77
2023-04-09T11:39:26.448Z,15.29
2023-04-09T11:41:53.297Z,15.09
2023-04-09T11:44:21.678Z,15.39
2023-04-09T11:46:49.177Z,15.51
2023-04-09T11:49:16.436Z,15.47
2023-04-09T11:51:43.135Z,15.83
2023-04-09T11:54:12.216Z,16.09
2023-04-09T11:56:38.660Z,16.24
2023-04-09T11:59:05.542Z,16.11
2023-04-09T12:01:33.372Z,15.57
2023-04-09T12:04:01.278Z,15.70
2023-04-09T12:06:28.523Z,15.93
2023-04-09T12:08:58.532Z,15.83
2023-04-09T12:11:32.508Z,15.36
2023-04-09T12:14:01.202Z,15.13
2023-04-09T12:16:34.262Z,14.97
2023-04-09T12:19:07.951Z,15.43
2023-04-09T12:21:55.825Z,15.41
2023-04-09T12:24:26.079Z,15.88
2023-04-09T12:26:52.718Z,15.62
2023-04-09T12:29:21.181Z,15.80
2023-04-09T12:31:47.960Z,15.53
2023-04-09T12:34:14.488Z,15.60
2023-04-09T12:36:41.850Z,15.60
2023-04-09T12:39:11.114Z,15.87
2023-04-09T12:41:37.657Z,16.04
2023-04-09T12:44:05.083Z,15.61
2023-04-09T12:46:32.429Z,15.36
2023-04-09T12:48:59.145Z,15.46
2023-04-09T12:51:25.820Z,15.30
2023-04-09T12:53:52.548Z,15.82
2023-04-09T12:56:19.270Z,16.29
2023-04-09T12:58:45.697Z,15.75
2023-04-09T13:01:12.185Z,15.72
2023-04-09T13:03:41.307Z,15.55
2023-04-09T13:06:08.745Z,14.91
2023-04-09T13:08:35.222Z,15.06
2023-04-09T13:11:01.862Z,14.99
2023-04-09T13:13:28.685Z,15.03
2023-04-09T13:15:55.180Z,14.96
2023-04-09T13:18:21.593Z,15.37
2023-04-09T13:20:48.036Z,15.72
2023-04-09T13:23:14.476Z,16.02
2023-04-09T13:25:40.926Z,15.99
2023-04-09T13:28:07.401Z,15.96
2023-04-09T13:30:33.986Z,15.82
2023-04-09T13:33:00.715Z,15.64
2023-04-09T13:35:27.246Z,16.02
2023-04-09T13:37:53.819Z,15.90
2023-04-09T13:40:20.241Z,15.61
2023-04-09T13:42:46.782Z,16.07
2023-04-09T13:45:13.295Z,16.20
2023-04-09T13:47:39.728Z,15.77
2023-04-09T13:50:07.435Z,15.66
2023-04-09T13:52:33.885Z,15.80
2023-04-09T13:55:00.584Z,15.67
2023-04-09T13:57:27.355Z,15.79
2023-04-09T13:59:53.788Z,16.18
2023-04-09T14:02:20.658Z,16.05
2023-04-09T14:04:47.278Z,16.23
2023-04-09T14:07:13.778Z,15.44
2023-04-09T14:09:40.534Z,15.30
2023-04-09T14:12:07.019Z,15.29
2023-04-09T14:14:33.465Z,15.57
2023-04-09T14:16:59.949Z,15.37
2023-04-09T14:19:26.364Z,15.25
2023-04-09T14:21:53.867Z,15.33
2023-04-09T14:24:22.960Z,15.48
2023-04-09T14:26:51.431Z,15.29
2023-04-09T14:29:17.870Z,15.44
2023-04-09T14:31:44.411Z,15.17
2023-04-09T14:34:10.955Z,15.21
2023-04-09T14:36:37.451Z,15.11
2023-04-09T14:39:03.964Z,14.90
2023-04-09T14:41:30.443Z,15.03
2023-04-09T14:43:56.901Z,15.40
2023-04-09T14:46:23.392Z,15.59
2023-04-09T14:48:49.981Z,15.63
2023-04-09T14:51:16.608Z,15.57
2023-04-09T14:53:43.084Z,15.21
2023-04-09T14:56:09.518Z,15.14
2023-04-09T14:58:36.312Z,14.96
2023-04-09T15:01:04.278Z,14.91
2023-04-09T15:03:30.889Z,15.16
2023-04-09T15:05:59.320Z,15.64
2023-04-09T15:08:25.907Z,15.69
2023-04-09T15:10:52.380Z,15.62
2023-04-09T15:13:18.847Z,15.77
2023-04-09T15:15:45.424Z,15.70
2023-04-09T15:18:11.930Z,15.93
2023-04-09T15:20:39.835Z,15.61
2023-04-09T15:23:06.283Z,15.78
2023-04-09T15:25:32.825Z,16.09
2023-04-09T15:27:59.269Z,16.15
2023-04-09T15:30:26.496Z,16.15
2023-04-09T15:32:53.076Z,15.78
2023-04-09T15:35:24.897Z,15.95
2023-04-09T15:37:51.691Z,16.10
2023-04-09T15:40:18.687Z,15.81
2023-04-09T15:42:45.234Z,15.75
2023-04-09T15:45:14.662Z,15.55
2023-04-09T15:47:41.143Z,15.96
2023-04-09T15:50:08.180Z,16.20
2023-04-09T15:52:34.643Z,16.14
2023-04-09T15:55:01.722Z,15.75
2023-04-09T15:57:28.791Z,15.51
2023-04-09T15:59:55.358Z,15.43
2023-04-09T16:02:23.438Z,15.50
2023-04-09T16:04:51.283Z,15.11
2023-04-09T16:07:17.773Z,15.16
2023-04-09T16:09:46.199Z,14.99
2023-04-09T16:12:12.844Z,15.20
2023-04-09T16:14:40.320Z,15.06
2023-04-09T16:17:07.042Z,15.03
2023-04-09T16:19:33.595Z,15.06
2023-04-09T16:22:00.052Z,14.79
2023-04-09T16:24:27.104Z,14.78
2023-04-09T16:26:53.580Z,14.72
2023-04-09T16:29:20.284Z,14.56
2023-04-09T16:31:46.799Z,14.72
2023-04-09T16:34:13.283Z,14.60
2023-04-09T16:36:41.525Z,14.38
2023-04-09T16:39:07.965Z,14.51
2023-04-09T16:41:36.814Z,14.70
2023-04-09T16:44:03.847Z,14.86
2023-04-09T16:46:30.705Z,14.72
2023-04-09T16:48:57.370Z,14.89
2023-04-09T16:51:23.988Z,14.82
2023-04-09T16:53:50.520Z,14.94
2023-04-09T16:56:17.005Z,14.51
2023-04-09T16:58:43.878Z,14.35
2023-04-09T17:01:10.670Z,14.36
2023-04-09T17:03:37.508Z,14.36
2023-04-09T17:06:04.738Z,14.53
2023-04-09T17:08:31.267Z,14.47
2023-04-09T17:11:02.398Z,14.59
2023-04-09T17:13:31.564Z,14.61
2023-04-09T17:15:58.703Z,14.33
2023-04-09T17:18:25.222Z,14.21
2023-04-09T17:20:52.127Z,14.10
2023-04-09T17:23:18.964Z,14.20
2023-04-09T17:25:46.120Z,14.02
2023-04-09T17:28:12.898Z,14.06
2023-04-09T17:30:39.357Z,14.03
2023-04-09T17:33:05.968Z,13.88
2023-04-09T17:35:33.355Z,13.89
2023-04-09T17:38:01.213Z,13.72
2023-04-09T17:40:28.227Z,13.67
2023-04-09T17:42:55.559Z,13.48
2023-04-09T17:45:22.124Z,13.50
2023-04-09T17:47:51.705Z,13.52
2023-04-09T17:50:18.396Z,13.36
2023-04-09T17:52:45.162Z,13.30
2023-04-09T17:55:12.967Z,13.27
2023-04-09T17:57:40.089Z,13.17
2023-04-09T18:00:08.218Z,13.10
2023-04-09T18:02:35.554Z,12.88
2023-04-09T18:05:06.274Z,13.10
2023-04-09T18:07:35.896Z,12.96
2023-04-09T18:10:03.367Z,13.02
2023-04-09T18:12:30.140Z,12.75
2023-04-09T18:14:56.712Z,12.71
2023-04-09T18:17:23.564Z,12.71
2023-04-09T18:19:50.397Z,12.67
2023-04-09T18:22:16.895Z,12.55
2023-04-09T18:24:43.353Z,12.47
2023-04-09T18:27:09.985Z,12.40
2023-04-09T18:29:36.712Z,12.36
2023-04-09T18:32:03.540Z,12.29
2023-04-09T18:34:30.079Z,12.23
2023-04-09T18:36:57.424Z,12.14
2023-04-09T18:39:24.393Z,12.13
2023-04-09T18:41:51.241Z,12.09
2023-04-09T18:44:17.799Z,12.14
2023-04-09T18:46:44.464Z,12.13
2023-04-09T18:49:11.172Z,12.00
2023-04-09T18:51:37.703Z,11.85
2023-04-09T18:54:04.930Z,11.74
2023-04-09T18:56:37.377Z,11.71
2023-04-09T18:59:03.845Z,11.61
2023-04-09T19:01:30.726Z,11.54
2023-04-09T19:03:57.353Z,11.50
2023-04-09T19:06:25.468Z,11.41
2023-04-09T19:08:57.873Z,11.36
2023-04-09T19:11:25.925Z,11.40
2023-04-09T19:13:52.567Z,11.37
2023-04-09T19:16:20.287Z,11.46
2023-04-09T19:18:47.051Z,11.30
2023-04-09T19:21:13.922Z,11.36
2023-04-09T19:23:40.398Z,11.31
2023-04-09T19:26:15.483Z,11.08
2023-04-09T19:28:41.921Z,11.26
2023-04-09T19:31:08.511Z,11.21
2023-04-09T19:33:35.372Z,11.18
2023-04-09T19:36:01.846Z,11.10
2023-04-09T19:38:28.267Z,11.11
2023-04-09T19:40:54.707Z,11.07
2023-04-09T19:43:21.147Z,11.06
2023-04-09T19:45:47.578Z,11.04
2023-04-09T19:48:14.176Z,11.09
2023-04-09T19:50:41.181Z,11.14
2023-04-09T19:53:07.749Z,11.21
2023-04-09T19:55:34.944Z,11.21
2023-04-09T19:58:01.857Z,11.16
2023-04-09T20:00:28.888Z,11.08
2023-04-09T20:02:55.898Z,11.16
2023-04-09T20:05:22.921Z,11.18
2023-04-09T20:07:50.578Z,11.20
2023-04-09T20:10:17.227Z,11.16
2023-04-09T20:12:47.413Z,11.29
2023-04-09T20:15:14.281Z,11.30
2023-04-09T20:17:41.840Z,11.30
2023-04-09T20:20:08.797Z,11.35
2023-04-09T20:22:35.578Z,11.41
2023-04-09T20:25:02.127Z,11.37
2023-04-09T20:27:28.671Z,11.46
2023-04-09T20:29:55.332Z,11.45
2023-04-09T20:32:22.587Z,11.41
2023-04-09T20:34:49.546Z,11.34
2023-04-09T20:37:16.198Z,11.34
2023-04-09T20:39:42.710Z,11.33
2023-04-09T20:42:09.204Z,11.28
2023-04-09T20:44:35.696Z,11.22
2023-04-09T20:47:02.205Z,11.05
2023-04-09T20:49:28.930Z,11.01
2023-04-09T20:51:55.709Z,10.92
2023-04-09T20:54:23.142Z,10.91
2023-04-09T20:56:50.022Z,10.91
2023-04-09T20:59:17.156Z,10.92
2023-04-09T21:01:44.130Z,10.92
2023-04-09T21:04:11.022Z,10.76
2023-04-09T21:06:37.542Z,10.92
2023-04-09T21:09:04.141Z,10.87
2023-04-09T21:11:30.790Z,10.77
2023-04-09T21:13:57.803Z,10.85
2023-04-09T21:16:26.071Z,10.85
2023-04-09T21:18:53.010Z,10.85
2023-04-09T21:21:19.705Z,10.86
2023-04-09T21:23:46.174Z,10.84
2023-04-09T21:26:13.165Z,10.87
2023-04-09T21:28:39.593Z,10.85
2023-04-09T21:31:06.256Z,10.87
2023-04-09T21:33:32.793Z,10.86
2023-04-09T21:35:59.314Z,10.82
2023-04-09T21:38:25.995Z,10.83
2023-04-09T21:40:52.472Z,10.81
2023-04-09T21:43:18.904Z,10.82
2023-04-09T21:45:45.445Z,10.80
2023-04-09T21:48:12.359Z,10.78
2023-04-09T21:50:38.799Z,10.74
2023-04-09T21:53:05.583Z,10.70
2023-04-09T21:55:32.083Z,10.69
2023-04-09T21:57:58.552Z,10.61
2023-04-09T22:00:24.957Z,10.57
2023-04-09T22:02:51.690Z,10.44
2023-04-09T22:05:18.367Z,10.36
2023-04-09T22:07:45.165Z,10.27
2023-04-09T22:10:11.629Z,10.15
2023-04-09T22:12:38.095Z,10.18
2023-04-09T22:15:05.761Z,10.09
2023-04-09T22:17:32.288Z,9.97
2023-04-09T22:19:58.734Z,9.88
2023-04-09T22:22:25.389Z,9.70
2023-04-09T22:24:51.972Z,9.71
2023-04-09T22:27:18.491Z,9.59
2023-04-09T22:29:44.943Z,9.42
2023-04-09T22:32:11.373Z,9.37
2023-04-09T22:34:37.862Z,9.31
2023-04-09T22:37:04.288Z,9.18
2023-04-09T22:39:31.084Z,9.19
2023-04-09T22:41:58.413Z,9.06
2023-04-09T22:44:25.628Z,8.95
2023-04-09T22:46:52.259Z,8.94
2023-04-09T22:49:18.792Z,8.86
2023-04-09T22:51:46.297Z,8.88
2023-04-09T22:54:12.759Z,8.75
2023-04-09T22:56:39.646Z,8.67
2023-04-09T22:59:06.303Z,8.64
2023-04-09T23:01:32.874Z,8.59
2023-04-09T23:03:59.317Z,8.51
2023-04-09T23:06:25.795Z,8.51
2023-04-09T23:08:52.454Z,8.51
2023-04-09T23:11:19.269Z,8.36
2023-04-09T23:13:45.825Z,8.46
2023-04-09T23:16:13.113Z,8.43
2023-04-09T23:18:40.420Z,8.39
2023-04-09T23:21:08.402Z,8.36
2023-04-09T23:23:36.038Z,8.39
2023-04-09T23:26:03.215Z,8.37
2023-04-09T23:28:30.203Z,8.28
2023-04-09T23:30:56.834Z,8.30
2023-04-09T23:33:23.746Z,8.17
2023-04-09T23:35:50.778Z,8.08
2023-04-09T23:38:17.287Z,8.09
2023-04-09T23:40:43.705Z,8.05
2023-04-09T23:43:10.225Z,8.02
2023-04-09T23:45:36.828Z,7.98
2023-04-09T23:48:05.069Z,7.95
2023-04-09T23:50:31.626Z,7.94
2023-04-09T23:53:00.898Z,7.90
2023-04-09T23:55:27.841Z,7.82
2023-04-09T23:57:54.367Z,7.77
